Time;durP1;ratioP1;P1;durP2;ratioP2;P2;SDS_P1;SDS_P2;PMS_P1;PMS_P2;Temp;Humidity;BMP_temperature;BMP_pressure;BME280_temperature;BME280_humidity;BME280_pressure;Samples;Min_cycle;Max_cycle;Signal;HPM_P1;HPM_P2
2023/01/13 00:03:48;;;;;;;4.20;3.23;;;7.90;99.90;;;;;;9988509;29;20317;-86
2023/01/13 00:08:52;;;;;;;6.83;4.23;;;7.90;99.90;;;;;;9975739;29;20235;-86
2023/01/13 00:13:55;;;;;;;5.47;3.87;;;7.80;99.90;;;;;;9983914;29;20323;-86
2023/01/13 00:18:57;;;;;;;5.20;4.07;;;8.10;99.90;;;;;;9991108;29;20291;-86
2023/01/13 00:24:00;;;;;;;3.77;2.67;;;8.00;99.90;;;;;;9965780;29;20301;-86
2023/01/13 00:29:03;;;;;;;3.83;3.07;;;8.00;99.90;;;;;;10001676;29;20311;-86
2023/01/13 00:34:05;;;;;;;4.77;3.27;;;8.20;99.90;;;;;;10004833;29;20795;-86
2023/01/13 00:39:08;;;;;;;5.20;3.00;;;8.20;99.90;;;;;;10010434;29;20271;-86
2023/01/13 00:44:10;;;;;;;3.70;3.30;;;8.40;99.90;;;;;;10001141;29;20331;-86
2023/01/13 00:49:13;;;;;;;4.63;3.20;;;8.50;99.90;;;;;;10018748;29;20768;-86
2023/01/13 00:54:16;;;;;;;4.73;2.93;;;8.40;99.90;;;;;;10001756;29;20338;-86
2023/01/13 00:59:18;;;;;;;9.33;4.70;;;8.40;99.90;;;;;;9980275;29;20244;-86
2023/01/13 01:04:21;;;;;;;4.77;3.57;;;8.30;99.90;;;;;;10009077;29;20252;-86
2023/01/13 01:09:31;;;;;;;4.30;3.27;;;8.20;99.90;;;;;;10017903;29;20306;-86
2023/01/13 01:14:33;;;;;;;4.63;3.13;;;8.20;99.90;;;;;;9983036;29;20269;-86
2023/01/13 01:19:37;;;;;;;4.00;2.73;;;8.20;99.90;;;;;;10002680;29;20321;-86
2023/01/13 01:24:40;;;;;;;3.03;2.50;;;8.20;99.90;;;;;;9992453;29;20239;-86
2023/01/13 01:29:42;;;;;;;3.00;2.67;;;8.10;99.90;;;;;;10003789;29;20245;-86
2023/01/13 01:34:45;;;;;;;3.70;2.70;;;8.10;99.90;;;;;;10011680;29;20320;-86
2023/01/13 01:39:47;;;;;;;5.23;2.60;;;8.10;99.90;;;;;;10015287;29;20230;-86
2023/01/13 01:44:58;;;;;;;4.70;3.00;;;8.20;99.90;;;;;;10014762;29;20253;-86
2023/01/13 01:50:02;;;;;;;5.20;2.57;;;8.10;99.90;;;;;;9978498;29;20250;-86
2023/01/13 01:55:17;;;;;;;3.30;2.33;;;8.10;99.90;;;;;;9986900;29;20818;-86
2023/01/13 02:00:20;;;;;;;4.63;2.30;;;8.10;99.90;;;;;;9978284;29;20319;-86
2023/01/13 02:05:23;;;;;;;4.93;2.70;;;8.00;99.90;;;;;;9989165;29;20302;-86
2023/01/13 02:10:27;;;;;;;3.60;2.17;;;8.00;99.90;;;;;;9993281;29;20294;-86
2023/01/13 02:15:55;;;;;;;3.33;2.40;;;8.10;99.90;;;;;;9993895;29;20314;-86
2023/01/13 02:21:11;;;;;;;4.27;2.33;;;8.10;99.90;;;;;;9978514;29;20247;-86
2023/01/13 02:26:31;;;;;;;3.03;2.13;;;8.10;99.90;;;;;;10007433;29;20242;-86
2023/01/13 02:31:41;;;;;;;2.83;2.20;;;8.00;99.90;;;;;;9975363;29;20237;-86
2023/01/13 02:37:05;;;;;;;5.67;2.87;;;8.50;99.90;;;;;;9959356;29;20624;-86
2023/01/13 02:47:37;;;;;;;2.20;1.83;;;8.50;99.90;;;;;;9976700;29;20245;-87
2023/01/13 02:52:45;;;;;;;3.90;2.47;;;8.80;99.90;;;;;;9971460;29;20267;-87
2023/01/13 02:57:51;;;;;;;2.80;2.20;;;8.70;99.90;;;;;;9990616;29;20341;-86
2023/01/13 03:02:54;;;;;;;3.10;1.90;;;8.60;99.90;;;;;;9998324;29;20250;-87
2023/01/13 03:08:24;;;;;;;7.70;2.43;;;8.50;99.90;;;;;;9968781;29;20245;-87
2023/01/13 03:14:00;;;;;;;4.20;2.27;;;8.70;99.90;;;;;;9960337;29;20250;-87
2023/01/13 03:19:29;;;;;;;5.20;2.33;;;8.60;99.90;;;;;;10006090;29;20795;-87
2023/01/13 03:24:40;;;;;;;3.77;2.17;;;8.50;99.90;;;;;;9980944;29;20650;-86
2023/01/13 03:29:46;;;;;;;4.20;2.93;;;8.50;99.90;;;;;;10011868;29;20353;-86
2023/01/13 03:34:53;;;;;;;3.70;1.70;;;8.50;99.90;;;;;;9964655;29;20709;-84
2023/01/13 03:40:03;;;;;;;2.93;1.93;;;8.50;99.90;;;;;;10001321;29;20247;-84
2023/01/13 03:45:16;;;;;;;5.17;1.87;;;8.60;99.90;;;;;;9959485;29;20302;-84
2023/01/13 03:50:27;;;;;;;4.07;2.00;;;8.50;99.90;;;;;;9986280;29;20309;-84
2023/01/13 03:55:52;;;;;;;2.53;1.87;;;8.60;99.90;;;;;;9975304;29;20251;-84
2023/01/13 04:00:57;;;;;;;3.77;1.97;;;9.10;99.90;;;;;;9995022;29;20293;-84
2023/01/13 04:06:20;;;;;;;2.33;1.80;;;8.90;99.90;;;;;;9999977;29;20279;-83
2023/01/13 04:11:41;;;;;;;4.77;2.40;;;9.20;99.90;;;;;;10003081;29;20233;-84
2023/01/13 04:16:44;;;;;;;1.93;1.63;;;9.40;99.90;;;;;;9992716;29;20785;-84
2023/01/13 04:21:46;;;;;;;2.57;1.50;;;9.30;99.90;;;;;;10014832;29;20233;-84
2023/01/13 04:26:49;;;;;;;2.57;1.90;;;9.20;99.90;;;;;;10012384;29;20732;-84
2023/01/13 04:31:52;;;;;;;3.17;1.57;;;9.30;99.90;;;;;;9965277;29;20666;-84
2023/01/13 04:36:54;;;;;;;3.57;2.00;;;9.20;99.90;;;;;;9981189;29;20729;-84
2023/01/13 04:41:57;;;;;;;2.37;1.90;;;9.40;99.90;;;;;;9988520;29;20812;-84
2023/01/13 04:47:01;;;;;;;2.77;2.20;;;9.60;99.90;;;;;;9979841;29;20250;-84
2023/01/13 04:52:05;;;;;;;3.53;2.40;;;9.50;99.90;;;;;;9979066;29;20632;-84
2023/01/13 04:57:08;;;;;;;4.43;2.30;;;9.30;99.90;;;;;;9981101;29;20347;-84
2023/01/13 05:02:18;;;;;;;4.67;2.77;;;9.70;99.90;;;;;;9993832;29;20255;-87
2023/01/13 05:07:21;;;;;;;3.30;2.60;;;9.60;99.90;;;;;;9995007;29;20246;-87
2023/01/13 05:17:45;;;;;;;6.93;2.50;;;10.00;99.90;;;;;;9990521;29;20274;-87
2023/01/13 05:28:09;;;;;;;4.27;2.97;;;9.60;99.90;;;;;;9990674;29;20250;-90
2023/01/13 05:33:15;;;;;;;4.77;3.37;;;9.90;99.90;;;;;;9978191;29;20686;-90
2023/01/13 05:38:17;;;;;;;4.37;3.20;;;9.70;99.90;;;;;;9978451;29;20713;-90
2023/01/13 05:43:23;;;;;;;4.00;3.50;;;9.30;99.90;;;;;;9985369;29;20253;-90
2023/01/13 05:48:31;;;;;;;7.03;4.97;;;9.20;99.90;;;;;;10015449;29;20241;-91
2023/01/13 05:53:34;;;;;;;8.10;4.77;;;9.20;99.90;;;;;;9978339;29;20324;-91
2023/01/13 05:58:36;;;;;;;7.93;7.10;;;9.20;99.90;;;;;;9962069;29;20262;-90
2023/01/13 06:03:39;;;;;;;6.83;4.80;;;9.00;99.90;;;;;;9962558;29;20295;-90
2023/01/13 06:08:42;;;;;;;7.20;4.20;;;8.70;99.90;;;;;;9978628;29;20706;-90
2023/01/13 06:13:44;;;;;;;8.87;6.03;;;8.60;99.90;;;;;;9995675;29;20298;-90
2023/01/13 06:18:47;;;;;;;16.73;9.50;;;8.60;99.90;;;;;;10016617;29;20274;-90
2023/01/13 06:23:49;;;;;;;8.37;5.57;;;8.50;99.90;;;;;;9987172;29;20239;-91
2023/01/13 06:28:52;;;;;;;8.33;5.73;;;8.60;99.90;;;;;;9976750;29;20675;-88
2023/01/13 06:34:01;;;;;;;8.40;5.63;;;8.50;99.90;;;;;;9977597;29;20305;-88
2023/01/13 06:39:04;;;;;;;7.97;6.00;;;8.40;99.90;;;;;;9961622;29;20249;-89
2023/01/13 06:44:06;;;;;;;11.93;8.00;;;8.30;99.90;;;;;;9977772;29;20243;-89
2023/01/13 06:49:09;;;;;;;10.63;6.87;;;8.30;99.90;;;;;;9961317;29;20750;-88
2023/01/13 06:54:11;;;;;;;7.93;5.90;;;8.20;99.90;;;;;;9982230;29;20306;-88
2023/01/13 06:59:14;;;;;;;9.33;5.87;;;8.20;99.90;;;;;;9977728;29;20268;-86
2023/01/13 07:04:17;;;;;;;7.90;5.37;;;8.10;99.90;;;;;;9975755;29;20305;-89
2023/01/13 07:09:20;;;;;;;6.00;4.70;;;8.60;99.90;;;;;;9977133;29;20251;-89
2023/01/13 07:19:43;;;;;;;9.57;5.90;;;8.60;99.90;;;;;;9976695;29;20248;-89
2023/01/13 07:24:46;;;;;;;25.03;9.07;;;8.60;99.90;;;;;;9959908;29;20237;-89
2023/01/13 07:29:48;;;;;;;13.20;7.23;;;8.50;99.90;;;;;;9976315;29;20253;-88
2023/01/13 07:34:51;;;;;;;11.67;7.60;;;8.50;99.90;;;;;;9975763;29;20695;-88
2023/01/13 07:39:54;;;;;;;8.13;5.70;;;8.40;99.90;;;;;;9983389;29;20627;-89
2023/01/13 07:44:57;;;;;;;10.80;5.47;;;8.50;99.90;;;;;;9974909;29;20251;-88
2023/01/13 07:49:59;;;;;;;9.50;6.10;;;8.70;99.90;;;;;;9977466;29;20251;-88
2023/01/13 07:55:02;;;;;;;9.97;5.87;;;9.20;99.90;;;;;;9966646;29;20254;-88
2023/01/13 08:00:05;;;;;;;10.40;5.53;;;9.40;99.90;;;;;;9983004;29;20673;-88
2023/01/13 08:05:08;;;;;;;8.57;4.47;;;9.80;99.90;;;;;;9979364;29;20232;-88
2023/01/13 08:10:11;;;;;;;8.63;5.40;;;10.10;99.90;;;;;;9968566;29;20688;-88
2023/01/13 08:15:13;;;;;;;9.47;6.07;;;10.50;99.90;;;;;;9998350;29;20725;-88
2023/01/13 08:20:16;;;;;;;9.63;5.63;;;10.50;99.90;;;;;;9991970;29;20298;-88
2023/01/13 08:25:20;;;;;;;10.00;5.73;;;10.60;99.90;;;;;;10002100;29;20628;-88
2023/01/13 08:30:22;;;;;;;9.17;4.87;;;10.20;99.90;;;;;;10016922;29;20784;-88
2023/01/13 08:35:25;;;;;;;12.17;6.63;;;10.40;99.90;;;;;;9981086;29;20270;-88
2023/01/13 08:40:27;;;;;;;6.40;4.23;;;10.60;99.90;;;;;;9980713;29;20261;-88
2023/01/13 08:45:30;;;;;;;7.50;4.80;;;11.10;99.90;;;;;;9983151;29;20633;-88
2023/01/13 08:50:32;;;;;;;9.47;5.27;;;11.00;99.90;;;;;;9980976;29;20242;-89
2023/01/13 08:55:35;;;;;;;12.57;5.83;;;11.20;99.90;;;;;;9991365;29;20326;-88
2023/01/13 09:00:37;;;;;;;9.93;6.50;;;11.30;99.90;;;;;;9980179;29;20238;-90
2023/01/13 09:05:40;;;;;;;9.30;6.23;;;11.30;99.90;;;;;;9979628;29;20242;-91
2023/01/13 09:10:43;;;;;;;8.13;5.80;;;11.50;99.90;;;;;;10013730;29;20306;-90
2023/01/13 09:15:46;;;;;;;9.17;6.27;;;11.40;99.90;;;;;;10008260;29;20278;-91
2023/01/13 09:20:48;;;;;;;11.63;6.63;;;11.60;99.90;;;;;;10012920;29;20319;-91
2023/01/13 09:25:52;;;;;;;6.83;5.23;;;11.50;99.90;;;;;;9963770;29;20247;-91
2023/01/13 09:30:59;;;;;;;8.43;5.10;;;11.50;99.90;;;;;;9980137;29;20246;-91
2023/01/13 09:36:01;;;;;;;7.67;5.50;;;11.50;99.90;;;;;;10000262;29;20273;-91
2023/01/13 09:43:52;;;;;;;8.67;5.03;;;11.80;99.90;;;;;;10037706;29;20229;-91
2023/01/13 09:46:45;;;;;;;6.00;4.93;;;11.40;99.90;;;;;;10006946;29;20302;-88
2023/01/13 09:52:01;;;;;;;7.27;5.20;;;11.60;99.90;;;;;;10013985;29;20301;-86
2023/01/13 09:57:13;;;;;;;5.53;4.27;;;12.50;99.90;;;;;;9997767;29;20316;-86
2023/01/13 10:02:25;;;;;;;6.83;4.90;;;12.60;99.90;;;;;;9972021;29;20231;-87
2023/01/13 10:07:30;;;;;;;7.03;4.40;;;12.90;99.90;;;;;;9977321;29;20273;-87
2023/01/13 10:18:07;;;;;;;7.97;4.33;;;12.80;99.90;;;;;;9995056;29;20317;-87
2023/01/13 10:23:33;;;;;;;7.30;4.70;;;13.00;99.90;;;;;;10011303;29;20293;-87
2023/01/13 10:28:35;;;;;;;8.17;4.37;;;13.20;99.90;;;;;;10013666;29;20267;-87
2023/01/13 10:33:38;;;;;;;7.60;4.80;;;13.00;99.90;;;;;;10012453;29;20724;-89
2023/01/13 10:38:44;;;;;;;8.37;4.80;;;13.00;99.90;;;;;;10006145;29;20321;-89
2023/01/13 10:44:04;;;;;;;10.43;5.17;;;13.10;99.90;;;;;;10001296;29;20755;-89
2023/01/13 10:49:35;;;;;;;9.10;5.60;;;13.20;99.90;;;;;;9999894;29;20294;-90
2023/01/13 10:54:51;;;;;;;8.47;4.50;;;13.50;99.90;;;;;;9972114;29;20277;-89
2023/01/13 10:59:55;;;;;;;5.10;4.53;;;;;;;;;;9978360;29;20270;-90
2023/01/13 11:05:23;;;;;;;5.80;4.17;;;13.50;99.90;;;;;;10005487;29;20214;-89
2023/01/13 11:10:30;;;;;;;6.23;4.20;;;13.70;99.90;;;;;;10013547;29;20250;-89
2023/01/13 11:16:01;;;;;;;6.00;4.00;;;13.70;99.90;;;;;;10012717;29;20274;-88
2023/01/13 11:21:16;;;;;;;5.83;4.40;;;13.80;99.90;;;;;;9976507;29;20317;-88
2023/01/13 11:26:28;;;;;;;8.50;4.43;;;13.50;99.90;;;;;;9980213;29;20800;-88
2023/01/13 11:31:35;;;;;;;4.70;4.20;;;14.00;99.90;;;;;;9982764;29;20238;-88
2023/01/13 11:36:46;;;;;;;5.67;3.80;;;13.50;99.90;;;;;;9996836;29;20342;-89
2023/01/13 11:42:21;;;;;;;6.90;4.07;;;13.40;99.90;;;;;;10010905;29;20267;-89
2023/01/13 11:47:25;;;;;;;11.27;4.20;;;13.00;99.90;;;;;;9995612;29;21407;-89
2023/01/13 11:52:49;;;;;;;7.93;3.70;;;12.90;99.90;;;;;;9979613;29;20627;-89
2023/01/13 11:58:30;;;;;;;7.20;5.03;;;12.60;99.90;;;;;;9973804;29;20744;-89
2023/01/13 12:03:45;;;;;;;7.40;4.67;;;12.60;99.90;;;;;;9964720;29;20715;-89
2023/01/13 12:09:00;;;;;;;6.80;4.83;;;12.70;99.90;;;;;;9973705;29;20247;-89
2023/01/13 12:14:19;;;;;;;15.70;4.80;;;12.40;99.90;;;;;;9974189;29;20314;-88
2023/01/13 12:19:28;;;;;;;8.83;5.13;;;12.40;99.90;;;;;;9960546;29;20955;-89
2023/01/13 12:24:44;;;;;;;8.90;5.77;;;12.20;99.90;;;;;;10012562;29;20649;-88
2023/01/13 12:29:49;;;;;;;7.43;5.53;;;12.20;99.90;;;;;;10021778;29;20301;-89
2023/01/13 12:35:15;;;;;;;10.83;5.97;;;12.40;99.90;;;;;;9962525;29;20303;-87
2023/01/13 12:40:33;;;;;;;9.27;5.80;;;12.20;99.90;;;;;;10007180;29;20801;-87
2023/01/13 12:45:36;;;;;;;13.23;5.83;;;12.30;99.90;;;;;;9992289;29;20251;-90
2023/01/13 12:50:40;;;;;;;12.63;5.93;;;13.00;99.90;;;;;;10017655;29;20259;-93
2023/01/13 12:55:42;;;;;;;8.30;5.30;;;13.30;99.90;;;;;;10001177;29;20302;-92
2023/01/13 13:00:47;;;;;;;9.33;5.17;;;13.10;99.90;;;;;;10000395;29;20226;-93
2023/01/13 13:05:54;;;;;;;10.40;6.37;;;13.10;99.90;;;;;;9985680;29;20238;-93
2023/01/13 13:16:44;;;;;;;12.47;7.20;;;12.60;99.90;;;;;;10015050;29;20274;-90
2023/01/13 13:22:11;;;;;;;11.53;6.10;;;12.40;99.90;;;;;;9969319;29;20238;-89
2023/01/13 13:27:46;;;;;;;12.07;5.63;;;12.40;99.90;;;;;;9995497;29;20238;-89
2023/01/13 13:33:19;;;;;;;10.33;6.30;;;11.80;99.90;;;;;;9998778;29;20259;-93
2023/01/13 13:49:39;;;;;;;4.97;3.47;;;10.20;99.90;;;;;;9961132;29;20315;-92
2023/01/13 13:54:47;;;;;;;6.70;3.40;;;10.00;99.90;;;;;;9961878;29;20653;-92
2023/01/13 13:59:54;;;;;;;7.60;5.20;;;9.80;99.90;;;;;;9962021;29;20304;-92
2023/01/13 14:05:33;;;;;;;14.43;7.90;;;9.70;99.90;;;;;;9961461;29;20238;-92
2023/01/13 14:10:38;;;;;;;12.33;8.73;;;9.60;99.90;;;;;;9957673;29;20284;-84
2023/01/13 14:15:41;;;;;;;19.07;11.00;;;9.00;99.90;;;;;;9952749;29;20259;-84
2023/01/13 14:20:59;;;;;;;11.33;7.60;;;8.60;99.90;;;;;;9979198;29;20270;-86
2023/01/13 14:26:07;;;;;;;6.97;3.70;;;8.30;99.90;;;;;;9973303;29;20271;-85
2023/01/13 14:31:13;;;;;;;9.50;5.07;;;8.40;99.90;;;;;;9961370;29;20311;-84
2023/01/13 14:36:17;;;;;;;7.60;5.27;;;9.00;99.90;;;;;;9955163;29;20303;-85
2023/01/13 14:41:24;;;;;;;8.87;5.70;;;10.20;99.90;;;;;;9965368;29;20653;-85
2023/01/13 14:46:41;;;;;;;8.67;5.17;;;10.60;99.90;;;;;;9964189;29;20243;-85
2023/01/13 14:51:44;;;;;;;11.10;6.20;;;11.20;99.90;;;;;;9974913;29;20246;-84
2023/01/13 14:56:54;;;;;;;8.97;6.27;;;11.50;99.90;;;;;;9970051;29;20259;-85
2023/01/13 15:01:56;;;;;;;10.77;6.63;;;11.80;99.90;;;;;;9962069;29;20633;-85
2023/01/13 15:07:00;;;;;;;11.03;7.13;;;12.40;99.90;;;;;;9974630;29;20699;-85
2023/01/13 15:12:22;;;;;;;9.27;6.73;;;12.10;99.90;;;;;;9973818;29;20691;-85
2023/01/13 15:17:28;;;;;;;9.97;6.83;;;11.70;99.90;;;;;;9974480;29;20718;-85
2023/01/13 15:22:31;;;;;;;17.73;9.50;;;;;;;;;;9971572;29;20263;-85
2023/01/13 15:27:33;;;;;;;9.80;6.00;;;13.00;99.90;;;;;;9964511;29;20701;-85
2023/01/13 15:32:36;;;;;;;6.43;4.90;;;13.30;99.90;;;;;;9966416;29;20239;-84
2023/01/13 15:37:39;;;;;;;8.00;5.43;;;13.20;99.90;;;;;;9973108;29;20288;-85
2023/01/13 15:48:03;;;;;;;7.37;4.40;;;13.30;99.90;;;;;;9944771;29;20246;-84
2023/01/13 15:53:06;;;;;;;6.00;4.35;;;13.90;99.90;;;;;;9618720;29;9999720;-84
2023/01/13 15:58:13;;;;;;;6.50;4.87;;;14.30;99.90;;;;;;9965119;29;20866;-84
2023/01/13 16:03:16;;;;;;;5.47;4.07;;;14.30;99.90;;;;;;9982838;29;20343;-84
2023/01/13 16:08:21;;;;;;;5.43;4.00;;;14.50;99.90;;;;;;9993246;29;20339;-84
2023/01/13 16:13:23;;;;;;;8.73;5.00;;;14.50;99.90;;;;;;9991489;29;20290;-84
2023/01/13 16:18:26;;;;;;;7.53;4.90;;;14.40;99.90;;;;;;9997641;29;20325;-85
2023/01/13 16:23:28;;;;;;;10.07;5.33;;;14.10;99.90;;;;;;9994267;29;20577;-85
2023/01/13 16:28:34;;;;;;;9.10;5.33;;;13.30;99.90;;;;;;10008984;29;20632;-84
2023/01/13 16:33:36;;;;;;;6.33;4.37;;;13.10;99.90;;;;;;10006026;29;20641;-84
2023/01/13 16:38:39;;;;;;;10.90;6.30;;;12.60;99.90;;;;;;10001720;29;20668;-84
2023/01/13 16:43:42;;;;;;;7.73;5.03;;;12.30;99.90;;;;;;10005081;29;20314;-85
2023/01/13 16:48:45;;;;;;;8.87;5.20;;;12.20;99.90;;;;;;9977224;29;20238;-83
2023/01/13 16:53:49;;;;;;;12.50;5.83;;;12.40;99.90;;;;;;9972106;29;20312;-82
2023/01/13 16:58:56;;;;;;;14.30;7.53;;;12.60;99.90;;;;;;9980482;29;20654;-90
2023/01/13 17:03:59;;;;;;;13.90;8.93;;;11.90;99.90;;;;;;9980474;29;20235;-95
2023/01/13 17:09:17;;;;;;;15.07;8.13;;;12.40;99.90;;;;;;9993560;29;20637;-94
2023/01/13 17:14:22;;;;;;;13.27;7.83;;;11.50;99.90;;;;;;10019315;29;20686;-95
2023/01/13 17:19:25;;;;;;;13.67;8.87;;;10.80;99.90;;;;;;9973290;29;20300;-96
2023/01/13 17:24:29;;;;;;;16.50;9.63;;;10.40;99.90;;;;;;9939963;29;20790;-94
2023/01/13 17:29:33;;;;;;;21.97;11.07;;;10.00;99.90;;;;;;9913622;29;20244;-95
2023/01/13 17:34:35;;;;;;;26.10;13.73;;;9.30;99.90;;;;;;9938705;29;20785;-95
2023/01/13 17:39:38;;;;;;;21.00;12.70;;;9.20;99.90;;;;;;9939852;29;20664;-96
2023/01/13 17:44:41;;;;;;;24.87;14.57;;;9.10;99.90;;;;;;9940895;29;20240;-93
2023/01/13 17:49:44;;;;;;;17.73;11.00;;;9.20;99.90;;;;;;9939711;29;20272;-94
2023/01/13 17:54:46;;;;;;;16.13;9.13;;;9.20;99.90;;;;;;9939677;29;20239;-96
2023/01/13 17:59:49;;;;;;;12.63;7.23;;;9.70;99.90;;;;;;9939044;29;20271;-95
2023/01/13 18:04:52;;;;;;;15.63;9.73;;;9.50;99.90;;;;;;9938158;29;20243;-94
2023/01/13 18:09:54;;;;;;;19.20;10.10;;;9.20;99.90;;;;;;9939203;29;20250;-95
2023/01/13 18:14:57;;;;;;;22.70;12.80;;;8.80;99.90;;;;;;9898438;29;1297749;-95
2023/01/13 18:30:42;;;;;;;14.37;8.03;;;8.40;99.90;;;;;;9978826;29;20263;-95
2023/01/13 18:35:45;;;;;;;14.60;7.47;;;9.20;99.90;;;;;;9977921;29;20280;-94
2023/01/13 18:40:47;;;;;;;18.57;8.27;;;10.00;99.90;;;;;;9948634;29;20679;-95
2023/01/13 18:45:50;;;;;;;14.73;7.60;;;9.60;99.90;;;;;;9941293;29;20235;-95
2023/01/13 18:50:53;;;;;;;16.13;8.50;;;9.50;99.90;;;;;;9978099;29;20914;-95
2023/01/13 18:55:55;;;;;;;20.23;10.43;;;9.10;99.90;;;;;;9948156;29;20239;-94
2023/01/13 19:01:02;;;;;;;17.03;8.87;;;8.90;99.90;;;;;;9976847;29;20282;-95
2023/01/13 19:06:10;;;;;;;16.43;10.30;;;8.70;99.90;;;;;;9978097;29;20243;-94
2023/01/13 19:11:13;;;;;;;16.17;9.53;;;8.30;99.90;;;;;;9983621;29;20215;-93
2023/01/13 19:16:17;;;;;;;25.40;10.77;;;8.30;99.90;;;;;;9993986;29;20239;-94
2023/01/13 19:21:25;;;;;;;23.27;12.77;;;8.20;99.90;;;;;;9973740;29;20238;-89
2023/01/13 19:26:28;;;;;;;23.50;11.43;;;;;;;;;;9974450;29;20270;-87
2023/01/13 19:31:30;;;;;;;31.27;19.80;;;7.00;99.90;;;;;;9984327;29;20279;-87
2023/01/13 19:36:33;;;;;;;35.30;19.70;;;8.20;99.90;;;;;;9953647;29;20728;-88
2023/01/13 19:46:58;;;;;;;17.53;10.30;;;9.30;99.90;;;;;;9988950;29;20211;-88
2023/01/13 19:52:01;;;;;;;22.60;15.20;;;7.40;99.90;;;;;;9987049;29;20235;-88
2023/01/13 19:57:04;;;;;;;24.93;16.93;;;8.50;99.90;;;;;;9989917;29;20215;-88
2023/01/13 20:02:30;;;;;;;24.13;14.57;;;9.30;99.90;;;;;;9983835;29;20241;-88
2023/01/13 20:07:34;;;;;;;30.07;16.47;;;10.10;99.90;;;;;;9989243;29;20227;-88
2023/01/13 20:12:36;;;;;;;33.57;19.87;;;10.40;99.90;;;;;;9985117;29;20288;-88
2023/01/13 20:17:40;;;;;;;26.30;18.00;;;10.90;99.90;;;;;;9959779;29;20238;-89
2023/01/13 20:22:43;;;;;;;28.07;18.43;;;11.20;99.90;;;;;;9973191;29;20215;-88
2023/01/13 20:27:46;;;;;;;28.70;18.40;;;11.10;99.90;;;;;;9988831;29;20216;-89
2023/01/13 20:32:49;;;;;;;26.60;17.30;;;11.50;99.90;;;;;;10011338;29;20267;-88
2023/01/13 20:37:52;;;;;;;38.60;19.57;;;11.30;99.90;;;;;;9936621;29;20259;-88
2023/01/13 20:42:55;;;;;;;22.77;12.40;;;11.90;99.90;;;;;;9941020;29;21172;-88
2023/01/13 20:47:58;;;;;;;27.17;14.73;;;12.00;99.90;;;;;;9972442;29;20252;-88
2023/01/13 20:53:00;;;;;;;20.70;12.87;;;12.50;99.90;;;;;;9937961;29;20247;-88
2023/01/13 20:58:03;;;;;;;27.10;17.53;;;12.20;99.90;;;;;;9972300;29;20251;-88
2023/01/13 21:03:05;;;;;;;24.37;14.83;;;12.30;99.90;;;;;;9962971;29;20287;-88
2023/01/13 21:08:08;;;;;;;24.77;14.67;;;12.40;99.90;;;;;;9988980;29;20295;-88
2023/01/13 21:23:53;;;;;;;22.37;11.67;;;12.60;99.90;;;;;;9977716;29;20291;-88
2023/01/13 21:28:57;;;;;;;19.83;10.67;;;12.10;99.90;;;;;;9960582;29;20243;-87
2023/01/13 21:34:00;;;;;;;20.97;11.77;;;12.10;99.90;;;;;;9975857;29;20659;-88
2023/01/13 21:39:03;;;;;;;17.30;11.97;;;12.20;99.90;;;;;;9978334;29;20311;-88
2023/01/13 21:49:43;;;;;;;21.80;14.27;;;12.20;99.90;;;;;;9969423;29;20246;-90
2023/01/13 22:00:07;;;;;;;13.83;9.47;;;12.80;99.90;;;;;;9976019;29;20666;-90
2023/01/13 22:05:12;;;;;;;17.77;10.07;;;13.00;99.90;;;;;;9975596;29;20235;-90
2023/01/13 22:10:17;;;;;;;19.17;12.53;;;13.00;99.90;;;;;;9961223;29;20242;-89
2023/01/13 22:15:21;;;;;;;17.03;11.93;;;13.00;99.90;;;;;;9977786;29;20267;-88
2023/01/13 22:20:24;;;;;;;16.90;9.33;;;13.20;99.90;;;;;;9957914;29;20674;-88
2023/01/13 22:25:26;;;;;;;17.67;11.53;;;12.90;99.90;;;;;;9942342;29;20283;-89
2023/01/13 22:30:31;;;;;;;14.87;8.80;;;12.90;99.90;;;;;;9974756;29;20228;-88
2023/01/13 22:35:34;;;;;;;14.73;10.30;;;12.60;99.90;;;;;;9956719;29;20234;-87
2023/01/13 22:40:36;;;;;;;19.20;9.17;;;13.10;99.90;;;;;;9948271;29;20670;-88
2023/01/13 22:45:39;;;;;;;17.40;10.77;;;13.00;99.90;;;;;;9983258;29;20294;-88
2023/01/13 22:50:42;;;;;;;15.50;9.23;;;13.10;99.90;;;;;;9959503;29;20242;-88
2023/01/13 22:55:56;;;;;;;11.73;6.97;;;13.10;99.90;;;;;;9976795;29;20683;-87
2023/01/13 23:01:14;;;;;;;12.20;7.37;;;12.40;99.90;;;;;;9960367;29;20342;-88
2023/01/13 23:06:18;;;;;;;10.70;6.70;;;11.90;99.90;;;;;;9957394;29;21011;-88
2023/01/13 23:11:23;;;;;;;10.03;7.00;;;12.10;99.90;;;;;;9973742;29;20238;-88
2023/01/13 23:16:28;;;;;;;12.13;8.03;;;11.80;99.90;;;;;;9976493;29;20275;-88
2023/01/13 23:21:33;;;;;;;12.63;7.93;;;12.10;99.90;;;;;;9976542;29;20284;-88
2023/01/13 23:26:36;;;;;;;11.00;7.43;;;12.40;99.90;;;;;;9959649;29;20829;-88
2023/01/13 23:31:39;;;;;;;11.63;6.90;;;12.60;99.90;;;;;;9976901;29;20302;-88
2023/01/13 23:36:43;;;;;;;8.57;5.90;;;12.20;99.90;;;;;;9976943;29;20243;-88
2023/01/13 23:41:45;;;;;;;11.23;7.80;;;12.10;99.90;;;;;;9941198;29;20255;-88
2023/01/13 23:46:48;;;;;;;11.20;7.30;;;12.50;99.90;;;;;;9960144;29;20242;-88
2023/01/13 23:51:51;;;;;;;9.33;6.73;;;12.50;99.90;;;;;;9960180;29;20699;-88
2023/01/13 23:56:53;;;;;;;8.73;5.27;;;12.20;99.90;;;;;;9941775;29;20322;-88
